sensor_id;sensor_type;location;lat;lon;timestamp;pressure;altitude;pressure_sealevel;temperature;humidity
54465;BME280;40374;49.480;20.016;2023-05-29T00:01:47;95117.31;;;9.68;100.00
54465;BME280;40374;49.480;20.016;2023-05-29T00:04:14;95123.22;;;9.65;100.00
54465;BME280;40374;49.480;20.016;2023-05-29T00:06:42;95106.84;;;9.51;100.00
54465;BME280;40374;49.480;20.016;2023-05-29T00:09:09;95113.53;;;9.59;100.00
54465;BME280;40374;49.480;20.016;2023-05-29T00:11:37;95106.56;;;9.48;100.00
54465;BME280;40374;49.480;20.016;2023-05-29T00:14:04;95101.19;;;9.38;100.00
54465;BME280;40374;49.480;20.016;2023-05-29T00:16:32;95116.78;;;9.30;100.00
54465;BME280;40374;49.480;20.016;2023-05-29T00:18:59;95125.09;;;9.29;100.00
54465;BME280;40374;49.480;20.016;2023-05-29T00:21:27;95116.22;;;9.18;100.00
54465;BME280;40374;49.480;20.016;2023-05-29T00:23:54;95121.84;;;9.17;100.00
54465;BME280;40374;49.480;20.016;2023-05-29T00:26:21;95123.44;;;9.02;100.00
54465;BME280;40374;49.480;20.016;2023-05-29T00:28:53;95120.75;;;8.97;100.00
54465;BME280;40374;49.480;20.016;2023-05-29T00:31:21;95100.34;;;8.81;100.00
54465;BME280;40374;49.480;20.016;2023-05-29T00:33:48;95110.25;;;8.85;100.00
54465;BME280;40374;49.480;20.016;2023-05-29T00:36:16;95103.28;;;8.79;100.00
54465;BME280;40374;49.480;20.016;2023-05-29T00:38:44;95110.78;;;8.72;100.00
54465;BME280;40374;49.480;20.016;2023-05-29T00:41:15;95118.31;;;8.85;100.00
54465;BME280;40374;49.480;20.016;2023-05-29T00:43:43;95113.97;;;8.69;100.00
54465;BME280;40374;49.480;20.016;2023-05-29T00:46:12;95120.94;;;8.65;100.00
54465;BME280;40374;49.480;20.016;2023-05-29T00:48:41;95121.84;;;9.01;100.00
54465;BME280;40374;49.480;20.016;2023-05-29T00:51:10;95119.94;;;9.07;100.00
54465;BME280;40374;49.480;20.016;2023-05-29T00:53:40;95120.25;;;9.21;100.00
54465;BME280;40374;49.480;20.016;2023-05-29T00:56:09;95108.69;;;9.15;100.00
54465;BME280;40374;49.480;20.016;2023-05-29T00:58:38;95102.28;;;9.26;100.00
54465;BME280;40374;49.480;20.016;2023-05-29T01:01:05;95110.31;;;9.31;100.00
54465;BME280;40374;49.480;20.016;2023-05-29T01:03:33;95114.09;;;9.35;100.00
54465;BME280;40374;49.480;20.016;2023-05-29T01:06:03;95107.63;;;9.16;100.00
54465;BME280;40374;49.480;20.016;2023-05-29T01:08:30;95107.38;;;9.18;100.00
54465;BME280;40374;49.480;20.016;2023-05-29T01:11:05;95114.91;;;9.31;100.00
54465;BME280;40374;49.480;20.016;2023-05-29T01:13:37;95106.00;;;9.05;100.00
54465;BME280;40374;49.480;20.016;2023-05-29T01:16:15;95113.53;;;9.18;100.00
54465;BME280;40374;49.480;20.016;2023-05-29T01:22:13;95115.41;;;9.28;100.00
54465;BME280;40374;49.480;20.016;2023-05-29T01:25:00;95112.47;;;9.19;100.00
54465;BME280;40374;49.480;20.016;2023-05-29T01:27:31;95108.16;;;9.13;100.00
54465;BME280;40374;49.480;20.016;2023-05-29T01:30:02;95121.59;;;9.23;100.00
54465;BME280;40374;49.480;20.016;2023-05-29T01:32:30;95113.25;;;8.99;100.00
54465;BME280;40374;49.480;20.016;2023-05-29T01:34:58;95115.66;;;8.96;100.00
54465;BME280;40374;49.480;20.016;2023-05-29T01:37:25;95113.47;;;8.87;100.00
54465;BME280;40374;49.480;20.016;2023-05-29T01:39:56;95123.03;;;8.47;100.00
54465;BME280;40374;49.480;20.016;2023-05-29T01:42:26;95103.09;;;9.27;100.00
54465;BME280;40374;49.480;20.016;2023-05-29T01:44:55;95112.47;;;9.50;100.00
54465;BME280;40374;49.480;20.016;2023-05-29T01:47:23;95097.72;;;9.32;100.00
54465;BME280;40374;49.480;20.016;2023-05-29T01:49:52;95104.16;;;9.41;100.00
54465;BME280;40374;49.480;20.016;2023-05-29T01:52:19;95117.16;;;8.50;100.00
54465;BME280;40374;49.480;20.016;2023-05-29T01:54:47;95105.31;;;8.41;100.00
54465;BME280;40374;49.480;20.016;2023-05-29T01:57:14;95104.19;;;8.37;100.00
54465;BME280;40374;49.480;20.016;2023-05-29T01:59:43;95108.66;;;8.16;100.00
54465;BME280;40374;49.480;20.016;2023-05-29T02:02:10;95115.88;;;8.16;100.00
54465;BME280;40374;49.480;20.016;2023-05-29T02:04:39;95116.47;;;8.28;100.00
54465;BME280;40374;49.480;20.016;2023-05-29T02:07:06;95113.50;;;8.19;100.00
54465;BME280;40374;49.480;20.016;2023-05-29T02:09:35;95106.22;;;8.09;100.00
54465;BME280;40374;49.480;20.016;2023-05-29T02:12:03;95100.53;;;8.01;100.00
54465;BME280;40374;49.480;20.016;2023-05-29T02:14:31;95093.78;;;7.88;100.00
54465;BME280;40374;49.480;20.016;2023-05-29T02:16:59;95093.22;;;7.86;100.00
54465;BME280;40374;49.480;20.016;2023-05-29T02:19:29;95091.59;;;7.85;100.00
54465;BME280;40374;49.480;20.016;2023-05-29T02:21:56;95099.09;;;7.83;100.00
54465;BME280;40374;49.480;20.016;2023-05-29T02:24:24;95096.47;;;7.93;100.00
54465;BME280;40374;49.480;20.016;2023-05-29T02:26:51;95093.94;;;7.71;100.00
54465;BME280;40374;49.480;20.016;2023-05-29T02:29:19;95093.13;;;7.70;100.00
54465;BME280;40374;49.480;20.016;2023-05-29T02:31:46;95080.81;;;7.75;100.00
54465;BME280;40374;49.480;20.016;2023-05-29T02:34:14;95087.81;;;7.76;100.00
54465;BME280;40374;49.480;20.016;2023-05-29T02:36:41;95076.31;;;7.80;100.00
54465;BME280;40374;49.480;20.016;2023-05-29T02:39:09;95085.69;;;7.83;100.00
54465;BME280;40374;49.480;20.016;2023-05-29T02:41:37;95093.50;;;7.89;100.00
54465;BME280;40374;49.480;20.016;2023-05-29T02:44:05;95085.75;;;7.93;100.00
54465;BME280;40374;49.480;20.016;2023-05-29T02:46:32;95089.47;;;7.82;100.00
54465;BME280;40374;49.480;20.016;2023-05-29T02:49:00;95084.78;;;8.14;100.00
54465;BME280;40374;49.480;20.016;2023-05-29T02:51:27;95079.97;;;8.17;100.00
54465;BME280;40374;49.480;20.016;2023-05-29T02:53:55;95087.00;;;8.28;100.00
54465;BME280;40374;49.480;20.016;2023-05-29T02:56:22;95083.25;;;8.24;100.00
54465;BME280;40374;49.480;20.016;2023-05-29T02:58:53;95068.88;;;7.87;100.00
54465;BME280;40374;49.480;20.016;2023-05-29T03:01:20;95086.47;;;7.73;100.00
54465;BME280;40374;49.480;20.016;2023-05-29T03:03:48;95081.31;;;7.66;100.00
54465;BME280;40374;49.480;20.016;2023-05-29T03:06:16;95079.56;;;8.40;100.00
54465;BME280;40374;49.480;20.016;2023-05-29T03:08:45;95084.72;;;8.57;100.00
54465;BME280;40374;49.480;20.016;2023-05-29T03:11:13;95086.91;;;8.02;100.00
54465;BME280;40374;49.480;20.016;2023-05-29T03:13:42;95097.19;;;7.78;100.00
54465;BME280;40374;49.480;20.016;2023-05-29T03:16:10;95084.75;;;7.57;100.00
54465;BME280;40374;49.480;20.016;2023-05-29T03:18:39;95087.44;;;7.57;100.00
54465;BME280;40374;49.480;20.016;2023-05-29T03:21:07;95088.28;;;7.67;100.00
54465;BME280;40374;49.480;20.016;2023-05-29T03:23:35;95087.75;;;7.70;100.00
54465;BME280;40374;49.480;20.016;2023-05-29T03:26:02;95096.16;;;7.79;100.00
54465;BME280;40374;49.480;20.016;2023-05-29T03:28:33;95087.75;;;7.70;100.00
54465;BME280;40374;49.480;20.016;2023-05-29T03:31:03;95079.94;;;7.59;100.00
54465;BME280;40374;49.480;20.016;2023-05-29T03:33:31;95091.53;;;7.69;100.00
54465;BME280;40374;49.480;20.016;2023-05-29T03:36:16;95074.94;;;7.72;100.00
54465;BME280;40374;49.480;20.016;2023-05-29T03:38:45;95085.13;;;7.76;100.00
54465;BME280;40374;49.480;20.016;2023-05-29T03:41:12;95085.44;;;7.79;100.00
54465;BME280;40374;49.480;20.016;2023-05-29T03:43:39;95084.09;;;7.82;100.00
54465;BME280;40374;49.480;20.016;2023-05-29T03:46:07;95086.53;;;7.88;100.00
54465;BME280;40374;49.480;20.016;2023-05-29T03:48:36;95084.97;;;7.92;100.00
54465;BME280;40374;49.480;20.016;2023-05-29T03:51:03;95091.22;;;8.13;100.00
54465;BME280;40374;49.480;20.016;2023-05-29T03:53:35;95086.78;;;7.87;100.00
54465;BME280;40374;49.480;20.016;2023-05-29T03:56:03;95086.97;;;7.70;100.00
54465;BME280;40374;49.480;20.016;2023-05-29T03:58:32;95091.00;;;7.72;100.00
54465;BME280;40374;49.480;20.016;2023-05-29T04:01:00;95100.59;;;7.68;100.00
54465;BME280;40374;49.480;20.016;2023-05-29T04:03:31;95093.41;;;7.74;100.00
54465;BME280;40374;49.480;20.016;2023-05-29T04:05:58;95092.19;;;7.92;100.00
54465;BME280;40374;49.480;20.016;2023-05-29T04:08:26;95105.16;;;8.16;100.00
54465;BME280;40374;49.480;20.016;2023-05-29T04:10:53;95097.38;;;8.09;100.00
54465;BME280;40374;49.480;20.016;2023-05-29T04:13:22;95106.81;;;8.22;100.00
54465;BME280;40374;49.480;20.016;2023-05-29T04:15:49;95110.09;;;8.39;100.00
54465;BME280;40374;49.480;20.016;2023-05-29T04:18:20;95108.03;;;8.57;100.00
54465;BME280;40374;49.480;20.016;2023-05-29T04:20:48;95110.19;;;8.65;100.00
54465;BME280;40374;49.480;20.016;2023-05-29T04:23:16;95111.84;;;8.71;100.00
54465;BME280;40374;49.480;20.016;2023-05-29T04:25:44;95110.22;;;8.75;100.00
54465;BME280;40374;49.480;20.016;2023-05-29T04:28:19;95119.09;;;8.86;100.00
54465;BME280;40374;49.480;20.016;2023-05-29T04:30:51;95121.00;;;9.01;100.00
54465;BME280;40374;49.480;20.016;2023-05-29T04:33:20;95114.09;;;9.20;100.00
54465;BME280;40374;49.480;20.016;2023-05-29T04:35:50;95114.09;;;9.30;100.00
54465;BME280;40374;49.480;20.016;2023-05-29T04:38:18;95112.22;;;9.46;100.00
54465;BME280;40374;49.480;20.016;2023-05-29T04:40:46;95116.78;;;9.56;100.00
54465;BME280;40374;49.480;20.016;2023-05-29T04:43:18;95105.75;;;9.68;100.00
54465;BME280;40374;49.480;20.016;2023-05-29T04:45:56;95101.97;;;9.74;100.00
54465;BME280;40374;49.480;20.016;2023-05-29T04:48:25;95109.19;;;9.89;100.00
54465;BME280;40374;49.480;20.016;2023-05-29T04:50:53;95104.63;;;9.94;100.00
54465;BME280;40374;49.480;20.016;2023-05-29T04:53:22;95100.03;;;10.10;100.00
54465;BME280;40374;49.480;20.016;2023-05-29T04:55:50;95104.31;;;10.27;100.00
54465;BME280;40374;49.480;20.016;2023-05-29T04:58:18;95105.84;;;10.48;100.00
54465;BME280;40374;49.480;20.016;2023-05-29T05:00:48;95104.19;;;10.57;100.00
54465;BME280;40374;49.480;20.016;2023-05-29T05:03:16;95091.81;;;10.62;100.00
54465;BME280;40374;49.480;20.016;2023-05-29T05:05:43;95092.72;;;10.91;100.00
54465;BME280;40374;49.480;20.016;2023-05-29T05:08:14;95101.13;;;10.80;100.00
54465;BME280;40374;49.480;20.016;2023-05-29T05:10:41;95095.44;;;10.86;100.00
54465;BME280;40374;49.480;20.016;2023-05-29T05:13:09;95095.06;;;11.03;100.00
54465;BME280;40374;49.480;20.016;2023-05-29T05:15:38;95093.72;;;11.74;100.00
54465;BME280;40374;49.480;20.016;2023-05-29T05:18:05;95094.38;;;11.27;100.00
54465;BME280;40374;49.480;20.016;2023-05-29T05:20:34;95094.69;;;11.20;100.00
54465;BME280;40374;49.480;20.016;2023-05-29T05:23:03;95093.06;;;11.19;100.00
54465;BME280;40374;49.480;20.016;2023-05-29T05:25:31;95101.13;;;11.24;100.00
54465;BME280;40374;49.480;20.016;2023-05-29T05:28:00;95095.88;;;11.43;100.00
54465;BME280;40374;49.480;20.016;2023-05-29T05:30:28;95103.72;;;11.69;100.00
54465;BME280;40374;49.480;20.016;2023-05-29T05:32:57;95094.41;;;11.85;100.00
54465;BME280;40374;49.480;20.016;2023-05-29T05:35:24;95090.88;;;11.95;100.00
54465;BME280;40374;49.480;20.016;2023-05-29T05:37:52;95107.94;;;12.09;100.00
54465;BME280;40374;49.480;20.016;2023-05-29T05:40:20;95105.03;;;12.30;100.00
54465;BME280;40374;49.480;20.016;2023-05-29T05:42:57;95105.38;;;12.47;100.00
54465;BME280;40374;49.480;20.016;2023-05-29T05:45:44;95094.41;;;12.38;100.00
54465;BME280;40374;49.480;20.016;2023-05-29T05:48:12;95097.88;;;12.44;100.00
54465;BME280;40374;49.480;20.016;2023-05-29T05:50:40;95097.75;;;12.54;100.00
54465;BME280;40374;49.480;20.016;2023-05-29T05:53:08;95096.41;;;12.76;100.00
54465;BME280;40374;49.480;20.016;2023-05-29T05:55:35;95107.19;;;12.76;100.00
54465;BME280;40374;49.480;20.016;2023-05-29T05:58:03;95108.34;;;12.70;100.00
54465;BME280;40374;49.480;20.016;2023-05-29T06:00:31;95107.28;;;12.90;100.00
54465;BME280;40374;49.480;20.016;2023-05-29T06:02:58;95104.50;;;13.14;100.00
54465;BME280;40374;49.480;20.016;2023-05-29T06:05:45;95106.66;;;13.36;100.00
54465;BME280;40374;49.480;20.016;2023-05-29T06:08:13;95109.06;;;13.37;100.00
54465;BME280;40374;49.480;20.016;2023-05-29T06:10:43;95095.91;;;13.50;100.00
54465;BME280;40374;49.480;20.016;2023-05-29T06:13:11;95106.22;;;13.80;100.00
54465;BME280;40374;49.480;20.016;2023-05-29T06:15:47;95100.03;;;13.94;100.00
54465;BME280;40374;49.480;20.016;2023-05-29T06:18:15;95095.16;;;14.24;100.00
54465;BME280;40374;49.480;20.016;2023-05-29T06:20:42;95108.81;;;14.46;100.00
54465;BME280;40374;49.480;20.016;2023-05-29T06:23:10;95108.66;;;14.56;100.00
54465;BME280;40374;49.480;20.016;2023-05-29T06:25:38;95105.03;;;14.61;100.00
54465;BME280;40374;49.480;20.016;2023-05-29T06:28:06;95109.53;;;14.79;100.00
54465;BME280;40374;49.480;20.016;2023-05-29T06:30:33;95099.69;;;14.97;100.00
54465;BME280;40374;49.480;20.016;2023-05-29T06:33:05;95107.16;;;15.14;100.00
54465;BME280;40374;49.480;20.016;2023-05-29T06:35:35;95099.69;;;15.34;100.00
54465;BME280;40374;49.480;20.016;2023-05-29T06:38:03;95106.78;;;15.43;100.00
54465;BME280;40374;49.480;20.016;2023-05-29T06:40:31;95110.22;;;15.58;100.00
54465;BME280;40374;49.480;20.016;2023-05-29T06:42:59;95102.88;;;15.72;100.00
54465;BME280;40374;49.480;20.016;2023-05-29T06:45:45;95104.72;;;15.86;100.00
54465;BME280;40374;49.480;20.016;2023-05-29T06:48:13;95081.09;;;15.86;100.00
54465;BME280;40374;49.480;20.016;2023-05-29T06:50:41;95098.16;;;16.09;100.00
54465;BME280;40374;49.480;20.016;2023-05-29T06:53:29;95110.56;;;16.33;100.00
54465;BME280;40374;49.480;20.016;2023-05-29T06:55:56;95095.16;;;16.59;100.00
54465;BME280;40374;49.480;20.016;2023-05-29T06:58:24;95105.34;;;16.85;100.00
54465;BME280;40374;49.480;20.016;2023-05-29T07:00:52;95105.34;;;16.94;94.27
54465;BME280;40374;49.480;20.016;2023-05-29T07:03:26;95101.06;;;17.10;97.78
54465;BME280;40374;49.480;20.016;2023-05-29T07:05:54;95102.22;;;17.27;91.97
54465;BME280;40374;49.480;20.016;2023-05-29T08:03:07;95093.66;;;19.22;83.39
54465;BME280;40374;49.480;20.016;2023-05-29T08:06:05;95094.84;;;19.96;77.76
54465;BME280;40374;49.480;20.016;2023-05-29T08:08:33;95097.72;;;20.58;74.69
54465;BME280;40374;49.480;20.016;2023-05-29T08:11:01;95097.28;;;21.05;67.96
54465;BME280;40374;49.480;20.016;2023-05-29T08:13:29;95086.50;;;21.49;66.19
54465;BME280;40374;49.480;20.016;2023-05-29T08:15:58;95085.06;;;21.96;64.07
54465;BME280;40374;49.480;20.016;2023-05-29T08:18:26;95084.91;;;22.33;61.89
54465;BME280;40374;49.480;20.016;2023-05-29T08:20:54;95092.78;;;22.50;59.10
54465;BME280;40374;49.480;20.016;2023-05-29T08:23:22;95084.59;;;22.66;56.89
54465;BME280;40374;49.480;20.016;2023-05-29T08:25:50;95070.69;;;22.75;57.94
54465;BME280;40374;49.480;20.016;2023-05-29T08:28:18;95086.50;;;23.13;58.53
54465;BME280;40374;49.480;20.016;2023-05-29T08:30:46;95075.94;;;23.31;55.21
54465;BME280;40374;49.480;20.016;2023-05-29T08:33:13;95076.50;;;23.40;53.23
54465;BME280;40374;49.480;20.016;2023-05-29T08:35:40;95077.72;;;23.23;51.79
54465;BME280;40374;49.480;20.016;2023-05-29T08:38:08;95085.81;;;23.36;51.20
54465;BME280;40374;49.480;20.016;2023-05-29T08:40:36;95087.13;;;23.42;53.27
54465;BME280;40374;49.480;20.016;2023-05-29T08:43:34;95087.00;;;23.74;51.58
54465;BME280;40374;49.480;20.016;2023-05-29T08:46:02;95084.22;;;23.89;51.25
54465;BME280;40374;49.480;20.016;2023-05-29T08:48:30;95076.69;;;24.06;49.15
54465;BME280;40374;49.480;20.016;2023-05-29T08:50:58;95079.06;;;23.68;48.37
54465;BME280;40374;49.480;20.016;2023-05-29T08:53:29;95072.06;;;23.71;47.46
54465;BME280;40374;49.480;20.016;2023-05-29T09:00:53;95077.81;;;23.46;49.01
54465;BME280;40374;49.480;20.016;2023-05-29T09:03:23;95077.56;;;23.71;47.51
54465;BME280;40374;49.480;20.016;2023-05-29T09:05:51;95082.59;;;24.08;48.09
54465;BME280;40374;49.480;20.016;2023-05-29T09:08:18;95081.84;;;24.30;47.49
54465;BME280;40374;49.480;20.016;2023-05-29T09:10:46;95076.44;;;24.15;45.60
54465;BME280;40374;49.480;20.016;2023-05-29T09:13:13;95078.72;;;23.89;45.32
54465;BME280;40374;49.480;20.016;2023-05-29T09:15:41;95072.78;;;23.87;46.02
54465;BME280;40374;49.480;20.016;2023-05-29T09:18:11;95077.72;;;23.78;45.52
54465;BME280;40374;49.480;20.016;2023-05-29T09:20:39;95077.97;;;23.54;45.25
54465;BME280;40374;49.480;20.016;2023-05-29T09:23:08;95073.13;;;23.47;44.78
54465;BME280;40374;49.480;20.016;2023-05-29T09:25:41;95070.91;;;23.17;46.11
54465;BME280;40374;49.480;20.016;2023-05-29T09:28:13;95072.59;;;23.41;46.25
54465;BME280;40374;49.480;20.016;2023-05-29T09:30:46;95069.13;;;23.80;46.26
54465;BME280;40374;49.480;20.016;2023-05-29T09:33:16;95057.09;;;24.07;45.54
54465;BME280;40374;49.480;20.016;2023-05-29T09:35:48;95065.28;;;24.27;45.45
54465;BME280;40374;49.480;20.016;2023-05-29T09:38:18;95075.22;;;24.78;47.66
54465;BME280;40374;49.480;20.016;2023-05-29T09:40:49;95058.13;;;25.41;46.84
54465;BME280;40374;49.480;20.016;2023-05-29T09:43:18;95070.22;;;25.97;43.87
54465;BME280;40374;49.480;20.016;2023-05-29T09:45:48;95068.84;;;26.14;41.84
54465;BME280;40374;49.480;20.016;2023-05-29T09:48:17;95069.81;;;26.32;41.08
54465;BME280;40374;49.480;20.016;2023-05-29T09:50:45;95061.91;;;26.65;42.06
54465;BME280;40374;49.480;20.016;2023-05-29T09:53:23;95055.81;;;26.93;40.46
54465;BME280;40374;49.480;20.016;2023-05-29T09:55:54;95062.84;;;26.87;40.25
54465;BME280;40374;49.480;20.016;2023-05-29T09:58:23;95073.47;;;27.33;41.33
54465;BME280;40374;49.480;20.016;2023-05-29T10:00:51;95061.91;;;27.90;40.66
54465;BME280;40374;49.480;20.016;2023-05-29T10:03:20;95066.00;;;28.43;41.21
54465;BME280;40374;49.480;20.016;2023-05-29T10:05:50;95057.78;;;28.86;39.91
54465;BME280;40374;49.480;20.016;2023-05-29T10:08:19;95064.13;;;29.11;37.56
54465;BME280;40374;49.480;20.016;2023-05-29T10:10:56;95063.28;;;29.43;37.26
54465;BME280;40374;49.480;20.016;2023-05-29T10:13:28;95055.72;;;29.58;36.65
54465;BME280;40374;49.480;20.016;2023-05-29T10:15:58;95055.16;;;30.10;38.06
54465;BME280;40374;49.480;20.016;2023-05-29T10:18:32;95043.78;;;30.60;37.86
54465;BME280;40374;49.480;20.016;2023-05-29T10:21:02;95045.16;;;30.90;37.01
54465;BME280;40374;49.480;20.016;2023-05-29T10:23:30;95055.84;;;31.33;37.55
54465;BME280;40374;49.480;20.016;2023-05-29T10:26:19;95055.81;;;31.40;37.35
54465;BME280;40374;49.480;20.016;2023-05-29T10:28:59;95054.66;;;31.34;36.51
54465;BME280;40374;49.480;20.016;2023-05-29T10:31:43;95042.00;;;30.88;35.62
54465;BME280;40374;49.480;20.016;2023-05-29T10:37:16;95050.56;;;29.57;37.84
54465;BME280;40374;49.480;20.016;2023-05-29T10:40:37;95051.34;;;29.61;37.80
54465;BME280;40374;49.480;20.016;2023-05-29T10:43:04;95048.66;;;30.42;38.11
54465;BME280;40374;49.480;20.016;2023-05-29T10:50:44;95035.25;;;32.61;30.86
54465;BME280;40374;49.480;20.016;2023-05-29T10:53:31;95033.16;;;32.92;30.40
54465;BME280;40374;49.480;20.016;2023-05-29T10:55:59;95029.25;;;32.89;31.12
54465;BME280;40374;49.480;20.016;2023-05-29T10:58:30;95010.78;;;32.99;31.83
54465;BME280;40374;49.480;20.016;2023-05-29T11:03:04;95020.91;;;33.56;32.56
54465;BME280;40374;49.480;20.016;2023-05-29T11:05:33;95020.91;;;33.96;31.99
54465;BME280;40374;49.480;20.016;2023-05-29T11:08:01;95014.25;;;34.10;33.21
54465;BME280;40374;49.480;20.016;2023-05-29T11:13:32;95011.50;;;34.63;32.93
54465;BME280;40374;49.480;20.016;2023-05-29T11:16:09;95005.41;;;35.01;31.51
54465;BME280;40374;49.480;20.016;2023-05-29T11:18:47;95012.69;;;34.62;31.65
54465;BME280;40374;49.480;20.016;2023-05-29T11:24:21;95012.19;;;32.60;32.48
54465;BME280;40374;49.480;20.016;2023-05-29T11:26:51;95012.75;;;31.90;33.66
54465;BME280;40374;49.480;20.016;2023-05-29T11:29:38;95010.59;;;31.32;31.57
54465;BME280;40374;49.480;20.016;2023-05-29T11:34:21;95013.66;;;32.14;35.04
54465;BME280;40374;49.480;20.016;2023-05-29T11:36:51;95007.84;;;33.10;34.44
54465;BME280;40374;49.480;20.016;2023-05-29T11:39:18;95015.22;;;33.84;32.80
54465;BME280;40374;49.480;20.016;2023-05-29T11:41:50;94995.63;;;34.24;32.20
54465;BME280;40374;49.480;20.016;2023-05-29T11:44:19;95019.28;;;34.35;32.47
54465;BME280;40374;49.480;20.016;2023-05-29T11:46:47;95010.59;;;34.33;31.41
54465;BME280;40374;49.480;20.016;2023-05-29T11:49:33;95006.50;;;34.38;32.60
54465;BME280;40374;49.480;20.016;2023-05-29T11:52:20;95015.38;;;34.33;32.16
54465;BME280;40374;49.480;20.016;2023-05-29T11:54:49;95002.22;;;34.50;31.44
54465;BME280;40374;49.480;20.016;2023-05-29T11:57:19;95013.34;;;34.86;31.50
54465;BME280;40374;49.480;20.016;2023-05-29T11:59:49;94995.63;;;34.93;31.06
54465;BME280;40374;49.480;20.016;2023-05-29T12:02:16;94999.47;;;34.66;32.26
54465;BME280;40374;49.480;20.016;2023-05-29T12:04:59;94995.09;;;35.14;31.34
54465;BME280;40374;49.480;20.016;2023-05-29T12:07:28;95004.56;;;35.63;30.58
54465;BME280;40374;49.480;20.016;2023-05-29T12:09:55;94999.22;;;35.97;30.76
54465;BME280;40374;49.480;20.016;2023-05-29T12:12:25;94995.69;;;36.61;29.39
54465;BME280;40374;49.480;20.016;2023-05-29T12:14:54;95000.53;;;36.73;29.54
54465;BME280;40374;49.480;20.016;2023-05-29T12:17:22;94999.34;;;37.09;29.93
54465;BME280;40374;49.480;20.016;2023-05-29T12:19:50;94988.66;;;37.30;27.84
54465;BME280;40374;49.480;20.016;2023-05-29T12:22:18;94985.31;;;37.44;28.24
54465;BME280;40374;49.480;20.016;2023-05-29T12:25:04;94985.59;;;37.72;28.12
54465;BME280;40374;49.480;20.016;2023-05-29T12:27:33;94981.50;;;37.51;28.66
54465;BME280;40374;49.480;20.016;2023-05-29T12:30:04;94983.19;;;37.48;27.74
54465;BME280;40374;49.480;20.016;2023-05-29T12:32:40;94978.22;;;37.30;27.83
54465;BME280;40374;49.480;20.016;2023-05-29T12:35:12;94974.00;;;37.00;27.97
54465;BME280;40374;49.480;20.016;2023-05-29T12:37:45;94978.22;;;36.57;28.26
54465;BME280;40374;49.480;20.016;2023-05-29T12:40:18;94974.84;;;36.24;28.56
54465;BME280;40374;49.480;20.016;2023-05-29T12:42:48;94977.75;;;36.20;28.99
54465;BME280;40374;49.480;20.016;2023-05-29T12:45:17;94966.69;;;36.16;28.38
54465;BME280;40374;49.480;20.016;2023-05-29T12:47:50;94969.38;;;35.78;29.63
54465;BME280;40374;49.480;20.016;2023-05-29T12:50:28;94974.00;;;35.26;29.91
54465;BME280;40374;49.480;20.016;2023-05-29T12:53:07;94977.88;;;34.67;29.34
54465;BME280;40374;49.480;20.016;2023-05-29T12:55:39;94979.53;;;34.11;30.26
54465;BME280;40374;49.480;20.016;2023-05-29T12:58:13;94974.44;;;33.70;32.04
54465;BME280;40374;49.480;20.016;2023-05-29T13:00:43;94980.16;;;33.63;30.64
54465;BME280;40374;49.480;20.016;2023-05-29T13:03:11;94980.03;;;33.26;31.31
54465;BME280;40374;49.480;20.016;2023-05-29T13:05:39;94974.31;;;32.90;30.89
54465;BME280;40374;49.480;20.016;2023-05-29T13:08:07;94974.28;;;32.43;31.13
54465;BME280;40374;49.480;20.016;2023-05-29T13:10:35;94972.19;;;31.92;30.20
54465;BME280;40374;49.480;20.016;2023-05-29T13:13:03;94975.91;;;31.82;31.97
54465;BME280;40374;49.480;20.016;2023-05-29T13:15:31;94964.94;;;31.68;32.37
54465;BME280;40374;49.480;20.016;2023-05-29T13:18:00;94955.22;;;31.83;32.48
54465;BME280;40374;49.480;20.016;2023-05-29T13:20:28;94968.50;;;32.03;31.97
54465;BME280;40374;49.480;20.016;2023-05-29T13:22:57;94967.00;;;31.64;33.25
54465;BME280;40374;49.480;20.016;2023-05-29T13:25:25;94965.81;;;31.65;32.95
54465;BME280;40374;49.480;20.016;2023-05-29T13:27:53;94967.97;;;31.81;33.23
54465;BME280;40374;49.480;20.016;2023-05-29T13:30:20;94968.28;;;31.55;33.51
54465;BME280;40374;49.480;20.016;2023-05-29T13:32:50;94960.81;;;31.49;33.96
54465;BME280;40374;49.480;20.016;2023-05-29T13:35:19;94957.09;;;31.63;34.58
54465;BME280;40374;49.480;20.016;2023-05-29T13:37:47;94952.00;;;31.54;33.98
54465;BME280;40374;49.480;20.016;2023-05-29T13:40:16;94959.69;;;31.39;34.07
54465;BME280;40374;49.480;20.016;2023-05-29T13:42:43;94942.88;;;31.53;33.88
54465;BME280;40374;49.480;20.016;2023-05-29T13:45:11;94946.97;;;32.07;32.57
54465;BME280;40374;49.480;20.016;2023-05-29T13:47:39;94947.22;;;32.43;32.32
54465;BME280;40374;49.480;20.016;2023-05-29T13:50:08;94948.53;;;32.62;31.39
54465;BME280;40374;49.480;20.016;2023-05-29T13:52:36;94941.31;;;32.65;31.93
54465;BME280;40374;49.480;20.016;2023-05-29T13:55:03;94961.59;;;32.89;31.36
54465;BME280;40374;49.480;20.016;2023-05-29T13:57:36;94966.44;;;33.08;31.43
54465;BME280;40374;49.480;20.016;2023-05-29T14:00:05;94962.81;;;33.31;31.09
54465;BME280;40374;49.480;20.016;2023-05-29T14:02:33;94955.34;;;33.68;30.05
54465;BME280;40374;49.480;20.016;2023-05-29T14:05:00;94958.56;;;34.03;30.07
54465;BME280;40374;49.480;20.016;2023-05-29T14:07:28;94959.25;;;34.44;29.87
54465;BME280;40374;49.480;20.016;2023-05-29T14:09:55;94964.19;;;34.72;29.44
54465;BME280;40374;49.480;20.016;2023-05-29T14:12:23;94968.88;;;34.92;28.92
54465;BME280;40374;49.480;20.016;2023-05-29T14:14:50;94959.47;;;35.31;28.56
54465;BME280;40374;49.480;20.016;2023-05-29T14:17:18;94949.38;;;35.21;27.90
54465;BME280;40374;49.480;20.016;2023-05-29T14:19:46;94960.94;;;35.36;27.96
54465;BME280;40374;49.480;20.016;2023-05-29T14:22:15;94952.19;;;35.63;28.25
54465;BME280;40374;49.480;20.016;2023-05-29T14:24:42;94945.53;;;35.44;27.47